createdAt,value
2022-10-03T00:01:51.207Z,98247.84
2022-10-03T00:04:39.704Z,98256.03
2022-10-03T00:07:16.757Z,98252.22
2022-10-03T00:10:22.297Z,98246.75
2022-10-03T00:12:55.169Z,98239.41
2022-10-03T00:15:31.070Z,98242.38
2022-10-03T00:18:26.618Z,98238.56
2022-10-03T00:21:15.346Z,98247.59
2022-10-03T00:24:00.783Z,98242.38
2022-10-03T00:26:45.833Z,98243.19
2022-10-03T00:29:17.737Z,98242.38
2022-10-03T00:32:08.045Z,98238.81
2022-10-03T00:34:53.049Z,98231.44
2022-10-03T00:37:38.084Z,98228.72
2022-10-03T00:40:20.215Z,98227.06
2022-10-03T00:42:52.839Z,98222.66
2022-10-03T00:45:45.344Z,98227.56
2022-10-03T00:48:27.290Z,98224.84
2022-10-03T00:50:59.829Z,98226.50
2022-10-03T00:53:43.435Z,98228.13
2022-10-03T00:56:24.547Z,98217.22
2022-10-03T00:59:15.999Z,98218.03
2022-10-03T01:01:49.277Z,98221.59
2022-10-03T01:04:37.358Z,98223.50
2022-10-03T01:07:23.287Z,98215.59
2022-10-03T01:10:37.842Z,98210.13
2022-10-03T01:13:46.991Z,98209.03
2022-10-03T01:17:13.250Z,98212.84
2022-10-03T01:20:38.229Z,98211.75
2022-10-03T01:23:38.082Z,98209.03
2022-10-03T01:26:28.037Z,98204.66
2022-10-03T01:29:17.729Z,98221.03
2022-10-03T01:31:50.597Z,98221.03
2022-10-03T01:34:31.197Z,98212.25
2022-10-03T01:37:06.418Z,98217.72
2022-10-03T01:40:09.210Z,98214.16
2022-10-03T01:42:53.715Z,98222.09
2022-10-03T01:45:47.809Z,98222.09
2022-10-03T01:48:22.778Z,98219.38
2022-10-03T01:51:22.088Z,98209.53
2022-10-03T01:53:56.644Z,98213.91
2022-10-03T01:56:40.961Z,98202.16
2022-10-03T01:59:14.711Z,98210.13
2022-10-03T02:01:48.596Z,98215.59
2022-10-03T02:04:38.103Z,98218.31
2022-10-03T02:07:08.588Z,98208.22
2022-10-03T02:09:44.479Z,98204.66
2022-10-03T02:12:15.069Z,98199.19
2022-10-03T02:14:58.672Z,98204.66
2022-10-03T02:17:48.433Z,98207.63
2022-10-03T02:20:24.157Z,98206.56
2022-10-03T02:22:55.590Z,98205.72
2022-10-03T02:25:56.130Z,98207.88
2022-10-03T02:28:35.530Z,98206.25
2022-10-03T02:31:21.233Z,98204.31
2022-10-03T02:34:06.660Z,98216.06
2022-10-03T02:36:39.346Z,98216.06
2022-10-03T02:39:12.017Z,98216.06
2022-10-03T02:41:59.797Z,98208.97
2022-10-03T02:44:51.515Z,98212.50
2022-10-03T02:47:39.651Z,98226.97
2022-10-03T02:50:19.417Z,98226.97
2022-10-03T02:53:27.734Z,98222.34
2022-10-03T02:56:25.629Z,98232.44
2022-10-03T02:59:13.593Z,98219.88
2022-10-03T03:01:52.303Z,98227.81
2022-10-03T03:04:37.638Z,98217.72
2022-10-03T03:07:39.637Z,98215.22
2022-10-03T03:10:45.417Z,98219.88
2022-10-03T03:13:37.371Z,98212.50
2022-10-03T03:16:23.687Z,98216.56
2022-10-03T03:18:59.777Z,98214.91
2022-10-03T03:21:55.731Z,98214.06
2022-10-03T03:24:55.602Z,98219.28
2022-10-03T03:27:22.564Z,98222.03
2022-10-03T03:30:16.073Z,98222.84
2022-10-03T03:33:01.619Z,98211.94
2022-10-03T03:35:34.149Z,98213.84
2022-10-03T03:38:30.507Z,98200.19
2022-10-03T03:41:06.842Z,98211.69
2022-10-03T03:43:39.319Z,98210.03
2022-10-03T03:46:59.980Z,98212.75
2022-10-03T03:50:02.441Z,98213.59
2022-10-03T03:52:35.403Z,98207.31
2022-10-03T03:55:27.327Z,98212.75
2022-10-03T03:58:13.990Z,98212.75
2022-10-03T04:00:45.815Z,98211.09
2022-10-03T04:03:20.288Z,98211.09
2022-10-03T04:06:06.130Z,98214.91
2022-10-03T04:08:46.058Z,98211.34
2022-10-03T04:11:33.638Z,98201.50
2022-10-03T04:14:21.963Z,98202.28
2022-10-03T04:17:24.283Z,98205.03
2022-10-03T04:20:00.370Z,98197.69
2022-10-03T04:23:00.701Z,98201.25
2022-10-03T04:26:16.094Z,98198.53
2022-10-03T04:28:52.119Z,98201.50
2022-10-03T04:31:31.262Z,98202.28
2022-10-03T04:34:04.230Z,98192.25
2022-10-03T04:36:47.352Z,98196.84
2022-10-03T04:39:37.933Z,98200.44
2022-10-03T04:42:42.457Z,98209.44
2022-10-03T04:45:29.195Z,98209.44
2022-10-03T04:48:06.876Z,98204.81
2022-10-03T04:50:38.688Z,98208.63
2022-10-03T04:53:29.759Z,98218.66
2022-10-03T04:56:38.743Z,98223.56
2022-10-03T04:59:26.297Z,98221.91
2022-10-03T05:01:56.184Z,98221.06
2022-10-03T05:04:26.830Z,98224.63
2022-10-03T05:07:07.502Z,98225.47
2022-10-03T05:09:52.123Z,98220.00
2022-10-03T05:12:22.555Z,98232.59
2022-10-03T05:15:11.821Z,98231.75
2022-10-03T05:18:12.240Z,98217.03
2022-10-03T05:20:45.356Z,98221.66
2022-10-03T05:23:50.382Z,98217.03
2022-10-03T05:26:45.746Z,98224.13
2022-10-03T05:29:21.428Z,98228.78
2022-10-03T05:32:09.635Z,98243.50
2022-10-03T05:35:15.433Z,98235.31
2022-10-03T05:37:49.797Z,98239.72
2022-10-03T05:40:22.118Z,98230.09
2022-10-03T05:42:55.578Z,98232.81
2022-10-03T05:45:30.547Z,98242.69
2022-10-03T05:48:11.031Z,98243.75
2022-10-03T05:51:01.718Z,98243.97
2022-10-03T05:54:04.755Z,98243.97
2022-10-03T05:56:40.845Z,98245.66
2022-10-03T05:59:23.270Z,98241.00
2022-10-03T06:02:02.344Z,98247.31
2022-10-03T06:05:09.243Z,98249.19
2022-10-03T06:08:15.264Z,98259.06
2022-10-03T06:11:05.406Z,98250.88
2022-10-03T06:13:34.862Z,98245.41
2022-10-03T06:16:40.067Z,98254.44
2022-10-03T06:19:19.128Z,98257.16
2022-10-03T06:22:22.374Z,98250.88
2022-10-03T06:25:31.047Z,98249.78
2022-10-03T06:28:22.020Z,98257.97
2022-10-03T06:31:02.732Z,98260.72
2022-10-03T06:33:59.299Z,98253.59
2022-10-03T06:36:55.604Z,98247.31
2022-10-03T06:39:41.093Z,98257.41
2022-10-03T06:42:11.177Z,98244.81
2022-10-03T06:44:59.734Z,98248.38
2022-10-03T06:47:48.008Z,98252.75
2022-10-03T06:50:27.548Z,98253.59
2022-10-03T06:53:18.847Z,98256.31
2022-10-03T06:56:13.240Z,98270.53
2022-10-03T06:58:59.438Z,98273.25
2022-10-03T07:01:52.191Z,98270.81
2022-10-03T07:04:44.921Z,98275.19
2022-10-03T07:07:14.827Z,98273.25
2022-10-03T07:10:09.776Z,98283.38
2022-10-03T07:13:00.982Z,98271.63
2022-10-03T07:16:21.099Z,98277.91
2022-10-03T07:19:20.578Z,98268.91
2022-10-03T07:22:24.675Z,98270.53
2022-10-03T07:25:03.641Z,98271.63
2022-10-03T07:28:15.303Z,98270.81
2022-10-03T07:30:56.019Z,98279.81
2022-10-03T07:33:59.662Z,98273.53
2022-10-03T07:36:51.438Z,98270.81
2022-10-03T07:39:55.721Z,98267.81
2022-10-03T07:42:48.147Z,98278.53
2022-10-03T07:45:34.782Z,98265.06
2022-10-03T07:48:19.797Z,98265.94
2022-10-03T07:50:51.508Z,98274.97
2022-10-03T07:53:21.543Z,98273.25
2022-10-03T07:56:17.869Z,98271.41
2022-10-03T07:58:54.699Z,98279.59
2022-10-03T08:01:34.069Z,98274.13
2022-10-03T08:04:19.586Z,98276.84
2022-10-03T08:07:21.386Z,98278.72
2022-10-03T08:10:37.313Z,98276.00
2022-10-03T08:13:31.179Z,98281.44
2022-10-03T08:16:02.793Z,98278.72
2022-10-03T08:18:54.161Z,98298.94
2022-10-03T08:21:22.521Z,98284.19
2022-10-03T08:24:10.377Z,98293.47
2022-10-03T08:26:55.520Z,98288.59
2022-10-03T08:29:48.196Z,98288.59
2022-10-03T08:32:34.352Z,98283.97
2022-10-03T08:35:19.618Z,98277.69
2022-10-03T08:37:52.273Z,98282.06
2022-10-03T08:40:53.882Z,98288.59
2022-10-03T08:43:39.371Z,98277.69
2022-10-03T08:46:21.483Z,98280.41
2022-10-03T08:48:54.594Z,98282.06
2022-10-03T08:51:41.481Z,98290.50
2022-10-03T08:54:19.689Z,98286.72
2022-10-03T08:57:45.333Z,98287.53
2022-10-03T09:00:22.496Z,98286.72
2022-10-03T09:03:33.972Z,98284.81
2022-10-03T09:06:13.042Z,98286.72
2022-10-03T09:09:11.453Z,98275.78
2022-10-03T09:12:09.345Z,98289.63
2022-10-03T09:14:46.590Z,98287.53
2022-10-03T09:17:56.729Z,98286.47
2022-10-03T09:20:54.475Z,98288.38
2022-10-03T09:23:51.971Z,98295.72
2022-10-03T09:26:55.922Z,98281.84
2022-10-03T09:29:55.222Z,98298.22
2022-10-03T09:32:32.485Z,98306.41
2022-10-03T09:35:31.466Z,98302.84
2022-10-03T09:38:01.621Z,98299.28
2022-10-03T09:40:51.277Z,98289.19
2022-10-03T09:43:45.219Z,98300.13
2022-10-03T09:47:08.951Z,98299.06
2022-10-03T09:50:09.784Z,98295.50
2022-10-03T09:53:10.346Z,98295.50
2022-10-03T09:55:40.787Z,98300.94
2022-10-03T09:58:41.413Z,98306.41
2022-10-03T10:01:30.061Z,98311.88
2022-10-03T10:04:32.344Z,98305.56
2022-10-03T10:07:40.395Z,98300.94
2022-10-03T10:10:34.165Z,98294.66
2022-10-03T10:13:16.198Z,98302.59
2022-10-03T10:16:13.792Z,98312.69
2022-10-03T10:19:02.209Z,98301.78
2022-10-03T10:21:36.533Z,98291.66
2022-10-03T10:24:40.801Z,98300.94
2022-10-03T10:27:20.803Z,98311.88
2022-10-03T10:30:12.129Z,98305.31
2022-10-03T10:33:00.031Z,98312.69
2022-10-03T10:35:47.076Z,98307.25
2022-10-03T10:38:35.697Z,98302.84
2022-10-03T10:41:20.750Z,98296.78
2022-10-03T10:44:09.290Z,98308.31
2022-10-03T10:47:10.168Z,98332.03
2022-10-03T10:49:49.165Z,98312.09
2022-10-03T10:52:51.598Z,98321.97
2022-10-03T10:56:09.260Z,98315.66
2022-10-03T10:58:49.264Z,98319.22
2022-10-03T11:01:42.761Z,98321.97
2022-10-03T11:04:36.934Z,98316.50
2022-10-03T11:07:21.984Z,98320.88
2022-10-03T11:10:26.976Z,98317.34
2022-10-03T11:12:53.841Z,98319.22
2022-10-03T11:15:59.335Z,98326.34
2022-10-03T11:18:44.843Z,98333.72
2022-10-03T11:21:49.455Z,98341.91
2022-10-03T11:24:29.805Z,98341.06
2022-10-03T11:27:30.091Z,98338.34
2022-10-03T11:30:19.672Z,98345.69
2022-10-03T11:33:06.038Z,98347.59
2022-10-03T11:35:44.995Z,98347.59
2022-10-03T11:38:34.532Z,98345.94
2022-10-03T11:41:16.118Z,98350.31
2022-10-03T11:44:01.828Z,98348.66
2022-10-03T11:46:50.536Z,98346.16
2022-10-03T11:49:56.904Z,98343.19
2022-10-03T11:52:54.205Z,98344.88
2022-10-03T11:55:39.713Z,98336.69
2022-10-03T11:58:32.398Z,98341.31
2022-10-03T12:01:24.602Z,98347.59
2022-10-03T12:04:03.824Z,98349.25
2022-10-03T12:06:55.145Z,98344.03
2022-10-03T12:09:43.921Z,98361.25
2022-10-03T12:12:43.592Z,98366.69
2022-10-03T12:15:31.673Z,98365.88
2022-10-03T12:18:04.885Z,98369.44
2022-10-03T12:20:35.063Z,98368.59
2022-10-03T12:23:18.950Z,98358.50
2022-10-03T12:25:45.898Z,98372.41
2022-10-03T12:28:25.754Z,98384.16
2022-10-03T12:31:17.066Z,98374.06
2022-10-03T12:34:30.184Z,98380.34
2022-10-03T12:37:11.024Z,98390.44
2022-10-03T12:39:50.513Z,98377.00
2022-10-03T12:42:26.999Z,98373.22
2022-10-03T12:45:12.757Z,98374.06
2022-10-03T12:47:56.403Z,98380.34
2022-10-03T12:50:45.417Z,98391.28
2022-10-03T12:53:18.191Z,98384.16
2022-10-03T12:56:00.982Z,98396.72
2022-10-03T12:58:42.811Z,98398.63
2022-10-03T13:01:09.687Z,98394.00
2022-10-03T13:03:50.917Z,98395.91
2022-10-03T13:06:51.138Z,98394.22
2022-10-03T13:09:16.654Z,98397.78
2022-10-03T13:11:58.523Z,98379.72
2022-10-03T13:14:43.747Z,98378.69
2022-10-03T13:17:23.147Z,98380.59
2022-10-03T13:20:00.206Z,98386.88
2022-10-03T13:22:36.377Z,98400.53
2022-10-03T13:25:12.432Z,98384.16
2022-10-03T13:28:19.405Z,98387.91
2022-10-03T13:31:24.755Z,98379.72
2022-10-03T13:33:53.105Z,98386.88
2022-10-03T13:36:30.403Z,98394.00
2022-10-03T13:39:05.427Z,98389.38
2022-10-03T13:41:38.263Z,98388.53
2022-10-03T13:44:20.602Z,98387.72
2022-10-03T13:46:53.694Z,98390.44
2022-10-03T13:50:29.327Z,98398.63
2022-10-03T13:53:08.777Z,98367.75
2022-10-03T13:55:35.659Z,98379.53
2022-10-03T13:58:20.530Z,98397.78
2022-10-03T14:01:07.768Z,98401.34
2022-10-03T14:04:11.863Z,98405.16
2022-10-03T14:07:11.905Z,98411.69
2022-10-03T14:10:01.653Z,98402.66
2022-10-03T14:13:06.424Z,98402.66
2022-10-03T14:15:45.119Z,98407.03
2022-10-03T14:18:24.472Z,98407.03
2022-10-03T14:21:13.074Z,98410.59
2022-10-03T14:24:24.812Z,98410.38
2022-10-03T14:27:16.672Z,98415.00
2022-10-03T14:30:02.012Z,98418.56
2022-10-03T14:32:47.166Z,98421.91
2022-10-03T14:35:46.479Z,98417.50
2022-10-03T14:38:54.527Z,98425.69
2022-10-03T14:41:26.199Z,98422.69
2022-10-03T14:43:58.221Z,98437.19
2022-10-03T14:46:27.260Z,98439.91
2022-10-03T14:49:03.574Z,98432.81
2022-10-03T14:51:33.287Z,98429.81
2022-10-03T14:54:03.450Z,98435.63
2022-10-03T14:56:32.952Z,98430.53
2022-10-03T14:59:02.242Z,98424.31
2022-10-03T15:01:29.214Z,98432.84
2022-10-03T15:04:12.191Z,98435.69
2022-10-03T15:06:45.173Z,98440.63
2022-10-03T15:09:18.347Z,98431.72
2022-10-03T15:12:05.002Z,98441.06
2022-10-03T15:14:35.024Z,98439.50
2022-10-03T15:17:04.383Z,98441.75
2022-10-03T15:19:44.426Z,98433.06
2022-10-03T15:22:26.822Z,98437.19
2022-10-03T15:24:54.451Z,98443.00
2022-10-03T15:27:22.546Z,98441.69
2022-10-03T15:29:57.920Z,98442.00
2022-10-03T15:32:33.240Z,98437.69
2022-10-03T15:35:01.405Z,98437.22
2022-10-03T15:37:44.035Z,98435.66
2022-10-03T15:40:39.377Z,98433.00
2022-10-03T15:43:33.705Z,98446.75
2022-10-03T15:46:03.199Z,98442.91
2022-10-03T15:48:31.455Z,98448.97
2022-10-03T15:50:59.090Z,98455.84
2022-10-03T15:53:37.730Z,98458.44
2022-10-03T15:56:24.307Z,98461.16
2022-10-03T15:58:55.494Z,98465.06
2022-10-03T16:01:23.762Z,98465.06
2022-10-03T16:03:54.618Z,98462.06
2022-10-03T16:06:49.597Z,98466.25
2022-10-03T16:09:32.530Z,98476.09
2022-10-03T16:12:10.840Z,98476.66
2022-10-03T16:14:47.480Z,98483.56
2022-10-03T16:17:35.549Z,98498.63
2022-10-03T16:20:20.814Z,98492.09
2022-10-03T16:22:52.912Z,98489.94
2022-10-03T16:25:40.624Z,98495.97
2022-10-03T16:28:08.849Z,98494.41
2022-10-03T16:30:43.034Z,98496.38
2022-10-03T16:33:09.873Z,98496.69
2022-10-03T16:35:53.438Z,98495.63
2022-10-03T16:38:44.227Z,98501.69
2022-10-03T16:41:14.247Z,98505.00
2022-10-03T16:43:41.408Z,98496.53
2022-10-03T16:46:15.268Z,98503.41
2022-10-03T16:49:01.091Z,98509.97
2022-10-03T16:51:35.634Z,98504.50
2022-10-03T16:54:03.901Z,98513.78
2022-10-03T16:56:33.956Z,98498.44
2022-10-03T16:59:25.912Z,98508.81
2022-10-03T17:01:57.431Z,98514.31
2022-10-03T17:04:33.844Z,98509.63
2022-10-03T17:07:01.886Z,98510.47
2022-10-03T17:09:41.835Z,98506.41
2022-10-03T17:12:14.962Z,98510.31
2022-10-03T17:14:45.088Z,98508.13
2022-10-03T17:17:18.132Z,98518.59
2022-10-03T17:19:46.476Z,98515.09
2022-10-03T17:22:20.918Z,98528.88
2022-10-03T17:25:07.228Z,98513.00
2022-10-03T17:27:40.860Z,98516.34
2022-10-03T17:30:27.778Z,98521.88
2022-10-03T17:33:12.283Z,98516.72
2022-10-03T17:35:44.975Z,98520.84
2022-10-03T17:38:49.031Z,98523.09
2022-10-03T17:41:24.698Z,98527.47
2022-10-03T17:43:57.621Z,98526.16
2022-10-03T17:46:50.870Z,98530.28
2022-10-03T17:49:20.824Z,98526.47
2022-10-03T17:51:50.254Z,98526.78
2022-10-03T17:54:21.563Z,98522.41
2022-10-03T17:56:58.154Z,98527.63
2022-10-03T17:59:30.318Z,98531.75
2022-10-03T18:01:59.987Z,98530.44
2022-10-03T18:04:34.968Z,98524.97
2022-10-03T18:07:18.709Z,98536.22
2022-10-03T18:09:49.799Z,98529.69
2022-10-03T18:12:40.091Z,98526.69
2022-10-03T18:15:06.956Z,98531.06
2022-10-03T18:18:02.117Z,98525.59
2022-10-03T18:20:42.535Z,98529.44
2022-10-03T18:23:12.376Z,98528.25
2022-10-03T18:29:11.764Z,98522.97
2022-10-03T18:31:45.536Z,98536.09
2022-10-03T18:34:48.054Z,98542.91
2022-10-03T18:37:27.141Z,98541.25
2022-10-03T18:39:57.412Z,98540.69
2022-10-03T18:42:28.474Z,98541.75
2022-10-03T18:44:59.991Z,98537.59
2022-10-03T18:47:34.354Z,98537.88
2022-10-03T18:50:30.183Z,98532.63
2022-10-03T18:53:35.569Z,98533.72
2022-10-03T18:56:06.477Z,98533.97
2022-10-03T18:58:37.201Z,98543.25
2022-10-03T19:01:19.518Z,98533.16
2022-10-03T19:03:59.300Z,98539.09
2022-10-03T19:06:32.328Z,98537.19
2022-10-03T19:09:54.893Z,98542.13
2022-10-03T19:12:22.167Z,98549.72
2022-10-03T19:15:16.885Z,98550.00
2022-10-03T19:18:07.973Z,98552.75
2022-10-03T19:20:38.514Z,98549.41
2022-10-03T19:23:07.976Z,98552.38
2022-10-03T19:25:37.610Z,98551.56
2022-10-03T19:28:18.477Z,98558.38
2022-10-03T19:30:46.405Z,98549.56
2022-10-03T19:33:17.454Z,98555.03
2022-10-03T19:35:47.744Z,98549.84
2022-10-03T19:38:28.945Z,98569.00
2022-10-03T19:41:23.515Z,98574.72
2022-10-03T19:43:50.575Z,98571.13
2022-10-03T19:46:26.439Z,98576.06
2022-10-03T19:49:02.278Z,98560.69
2022-10-03T19:51:29.224Z,98560.69
2022-10-03T19:54:00.085Z,98568.09
2022-10-03T19:56:30.695Z,98572.97
2022-10-03T19:59:14.225Z,98565.03
2022-10-03T20:09:28.584Z,98573.97
2022-10-03T20:12:09.103Z,98570.66
2022-10-03T20:14:37.214Z,98576.13
2022-10-03T20:17:15.614Z,98574.47
2022-10-03T20:19:54.559Z,98580.19
2022-10-03T20:22:22.877Z,98565.69
2022-10-03T20:24:49.910Z,98569.50
2022-10-03T20:27:42.825Z,98570.56
2022-10-03T20:30:37.655Z,98567.81
2022-10-03T20:33:04.578Z,98572.50
2022-10-03T20:35:42.487Z,98575.22
2022-10-03T20:38:41.393Z,98568.31
2022-10-03T20:41:17.381Z,98569.41
2022-10-03T20:44:03.981Z,98568.56
2022-10-03T20:46:54.464Z,98566.66
2022-10-03T20:49:31.808Z,98558.72
2022-10-03T20:52:04.063Z,98557.91
2022-10-03T20:54:37.348Z,98567.16
2022-10-03T20:57:05.674Z,98570.97
2022-10-03T20:59:39.567Z,98577.50
2022-10-03T21:02:27.117Z,98573.16
2022-10-03T21:04:57.619Z,98568.75
2022-10-03T21:07:43.602Z,98563.28
2022-10-03T21:10:29.898Z,98562.69
2022-10-03T21:13:09.487Z,98561.03
2022-10-03T21:15:53.877Z,98562.94
2022-10-03T21:18:28.745Z,98570.31
2022-10-03T21:21:08.569Z,98553.91
2022-10-03T21:23:39.207Z,98555.81
2022-10-03T21:26:06.985Z,98569.50
2022-10-03T21:28:35.872Z,98567.00
2022-10-03T21:31:09.883Z,98564.25
2022-10-03T21:33:58.461Z,98572.47
2022-10-03T21:36:45.029Z,98571.63
2022-10-03T21:39:17.679Z,98577.38
2022-10-03T21:42:01.024Z,98576.53
2022-10-03T21:44:39.685Z,98574.88
2022-10-03T21:47:28.463Z,98575.09
2022-10-03T21:49:58.000Z,98575.09
2022-10-03T21:52:36.563Z,98568.78
2022-10-03T21:55:07.019Z,98577.28
2022-10-03T21:57:52.524Z,98574.53
2022-10-03T22:00:20.346Z,98576.44
2022-10-03T22:02:53.531Z,98569.28
2022-10-03T22:05:44.744Z,98565.72
2022-10-03T22:08:20.508Z,98557.50
2022-10-03T22:11:11.794Z,98559.41
2022-10-03T22:13:40.405Z,98562.97
2022-10-03T22:16:18.599Z,98561.31
2022-10-03T22:19:08.039Z,98569.50
2022-10-03T22:21:52.244Z,98567.88
2022-10-03T22:24:28.690Z,98567.88
2022-10-03T22:27:07.758Z,98568.94
2022-10-03T22:29:39.880Z,98561.81
2022-10-03T22:32:34.963Z,98567.28
2022-10-03T22:35:13.781Z,98560.13
2022-10-03T22:37:41.170Z,98562.88
2022-10-03T22:40:09.012Z,98574.66
2022-10-03T22:42:40.780Z,98567.78
2022-10-03T22:45:08.043Z,98565.03
2022-10-03T22:47:35.045Z,98564.22
2022-10-03T22:50:04.234Z,98563.63
2022-10-03T22:52:34.095Z,98557.31
2022-10-03T22:55:01.020Z,98564.44
2022-10-03T22:57:27.978Z,98556.25
2022-10-03T23:00:08.153Z,98562.78
2022-10-03T23:02:37.688Z,98560.88
2022-10-03T23:05:06.791Z,98560.06
2022-10-03T23:07:39.425Z,98560.88
2022-10-03T23:10:21.667Z,98558.41
2022-10-03T23:12:53.733Z,98554.00
2022-10-03T23:15:20.697Z,98552.13
2022-10-03T23:17:59.845Z,98548.53
2022-10-03T23:20:49.207Z,98553.41
2022-10-03T23:23:22.890Z,98551.78
2022-10-03T23:26:04.583Z,98545.22
2022-10-03T23:28:44.297Z,98549.06
2022-10-03T23:31:34.865Z,98549.84
2022-10-03T23:34:02.062Z,98552.84
2022-10-03T23:36:28.949Z,98565.44
2022-10-03T23:38:59.892Z,98550.34
2022-10-03T23:41:50.967Z,98546.78
2022-10-03T23:44:37.504Z,98551.19
2022-10-03T23:47:05.355Z,98543.00
2022-10-03T23:49:33.422Z,98544.06
2022-10-03T23:52:00.446Z,98545.72
2022-10-03T23:54:27.396Z,98543.22
2022-10-03T23:57:00.271Z,98538.59
2022-10-03T23:59:27.794Z,98540.50
